createdAt,value
2023-01-19T00:01:58.202Z,85.32
2023-01-19T00:04:26.486Z,85.37
2023-01-19T00:06:54.344Z,85.77
2023-01-19T00:09:22.972Z,85.10
2023-01-19T00:11:51.215Z,85.56
2023-01-19T00:14:19.057Z,85.30
2023-01-19T00:16:46.917Z,85.38
2023-01-19T00:19:15.172Z,85.35
2023-01-19T00:21:43.033Z,85.62
2023-01-19T00:24:14.449Z,85.23
2023-01-19T00:26:43.101Z,85.30
2023-01-19T00:29:12.186Z,85.55
2023-01-19T00:31:40.113Z,85.18
2023-01-19T00:34:08.758Z,85.23
2023-01-19T00:36:36.683Z,85.08
2023-01-19T00:39:07.356Z,85.26
2023-01-19T00:42:04.638Z,85.46
2023-01-19T00:44:32.432Z,85.36
2023-01-19T00:47:01.350Z,85.20
2023-01-19T00:49:29.317Z,85.49
2023-01-19T00:51:57.578Z,85.49
2023-01-19T00:54:27.541Z,85.44
2023-01-19T00:56:55.470Z,85.41
2023-01-19T00:59:26.329Z,85.72
2023-01-19T01:01:54.803Z,85.43
2023-01-19T01:04:22.887Z,85.37
2023-01-19T01:06:50.752Z,85.48
2023-01-19T01:09:19.032Z,85.44
2023-01-19T01:11:46.908Z,85.26
2023-01-19T01:14:14.782Z,85.37
2023-01-19T01:16:43.118Z,85.28
2023-01-19T01:19:11.093Z,85.29
2023-01-19T01:21:39.087Z,85.22
2023-01-19T01:24:08.189Z,85.07
2023-01-19T01:26:36.175Z,85.12
2023-01-19T01:29:05.911Z,85.21
2023-01-19T01:31:34.337Z,85.05
2023-01-19T01:34:02.283Z,84.69
2023-01-19T01:36:32.589Z,84.88
2023-01-19T01:39:01.105Z,84.47
2023-01-19T01:41:32.725Z,84.45
2023-01-19T01:44:03.252Z,84.57
2023-01-19T01:46:32.166Z,84.50
2023-01-19T01:49:08.235Z,84.21
2023-01-19T01:51:47.250Z,84.23
2023-01-19T01:54:32.772Z,84.29
2023-01-19T01:57:07.053Z,84.01
2023-01-19T01:59:39.561Z,83.92
2023-01-19T02:02:30.453Z,83.76
2023-01-19T02:05:07.025Z,83.65
2023-01-19T02:08:05.239Z,83.62
2023-01-19T02:10:52.989Z,83.34
2023-01-19T02:13:21.831Z,83.38
2023-01-19T02:16:00.119Z,83.64
2023-01-19T02:18:30.287Z,83.22
2023-01-19T02:21:01.572Z,83.16
2023-01-19T02:23:47.726Z,83.27
2023-01-19T02:26:20.794Z,82.74
2023-01-19T02:29:01.353Z,83.33
2023-01-19T02:31:31.860Z,83.38
2023-01-19T02:34:04.297Z,83.02
2023-01-19T02:36:43.671Z,82.78
2023-01-19T02:39:13.178Z,82.76
2023-01-19T02:41:49.331Z,82.93
2023-01-19T02:44:18.922Z,82.73
2023-01-19T02:46:47.146Z,82.71
2023-01-19T02:49:15.081Z,82.63
2023-01-19T02:51:44.812Z,82.75
2023-01-19T02:54:28.879Z,82.60
2023-01-19T02:57:18.485Z,83.14
2023-01-19T03:00:10.992Z,82.63
2023-01-19T03:03:06.701Z,82.35
2023-01-19T03:06:16.680Z,82.60
2023-01-19T03:09:11.809Z,82.42
2023-01-19T03:11:45.163Z,82.23
2023-01-19T03:14:14.971Z,82.90
2023-01-19T03:16:48.926Z,82.83
2023-01-19T03:19:16.776Z,82.62
2023-01-19T03:21:48.328Z,83.04
2023-01-19T03:24:18.553Z,82.96
2023-01-19T03:26:52.481Z,83.10
2023-01-19T03:29:27.705Z,83.06
2023-01-19T03:32:00.219Z,83.57
2023-01-19T03:34:29.911Z,83.50
2023-01-19T03:37:03.432Z,83.39
2023-01-19T03:39:31.966Z,83.17
2023-01-19T03:42:11.733Z,83.46
2023-01-19T03:44:42.044Z,83.63
2023-01-19T03:47:12.511Z,83.71
2023-01-19T03:49:45.635Z,83.44
2023-01-19T03:52:14.471Z,83.75
2023-01-19T03:54:42.731Z,83.80
2023-01-19T03:57:10.614Z,83.91
2023-01-19T03:59:38.837Z,83.66
2023-01-19T04:02:06.738Z,84.03
2023-01-19T04:04:35.000Z,83.69
2023-01-19T04:07:02.902Z,83.94
2023-01-19T04:09:30.743Z,83.92
2023-01-19T04:11:59.026Z,83.86
2023-01-19T04:14:26.819Z,83.77
2023-01-19T04:16:54.553Z,83.94
2023-01-19T04:19:22.920Z,83.94
2023-01-19T04:21:51.475Z,83.84
2023-01-19T04:24:19.412Z,84.24
2023-01-19T04:26:47.725Z,84.02
2023-01-19T04:29:15.656Z,83.96
2023-01-19T04:31:43.819Z,83.97
2023-01-19T04:34:14.851Z,83.90
2023-01-19T04:36:47.062Z,84.18
2023-01-19T04:39:18.722Z,84.32
2023-01-19T04:41:46.516Z,84.08
2023-01-19T04:44:14.911Z,84.25
2023-01-19T04:46:43.032Z,84.03
2023-01-19T04:49:11.193Z,84.37
2023-01-19T04:51:39.085Z,84.25
2023-01-19T04:54:10.703Z,84.34
2023-01-19T04:56:38.871Z,84.13
2023-01-19T04:59:07.326Z,84.12
2023-01-19T05:01:35.745Z,84.64
2023-01-19T05:04:06.671Z,84.24
2023-01-19T05:06:35.562Z,84.31
2023-01-19T05:09:04.875Z,84.50
2023-01-19T05:11:32.698Z,84.56
2023-01-19T05:14:00.972Z,84.57
2023-01-19T05:16:28.809Z,84.44
2023-01-19T05:18:57.087Z,84.39
2023-01-19T05:21:25.345Z,84.56
2023-01-19T05:23:53.376Z,84.73
2023-01-19T05:26:24.276Z,84.53
2023-01-19T05:28:52.535Z,84.71
2023-01-19T05:31:20.423Z,84.56
2023-01-19T05:33:49.321Z,84.53
2023-01-19T05:36:17.714Z,84.50
2023-01-19T05:38:45.627Z,84.49
2023-01-19T05:41:18.016Z,84.64
2023-01-19T05:43:49.101Z,84.39
2023-01-19T05:46:16.986Z,84.65
2023-01-19T05:48:45.475Z,84.82
2023-01-19T05:51:13.777Z,85.03
2023-01-19T05:53:42.041Z,84.55
2023-01-19T05:56:13.318Z,85.72
2023-01-19T05:58:41.741Z,85.03
2023-01-19T06:01:16.709Z,85.00
2023-01-19T06:03:45.065Z,84.65
2023-01-19T06:06:15.249Z,84.82
2023-01-19T06:08:43.018Z,84.69
2023-01-19T06:11:12.109Z,85.62
2023-01-19T06:13:41.955Z,85.09
2023-01-19T06:16:11.927Z,85.00
2023-01-19T06:18:40.743Z,85.10
2023-01-19T06:21:10.235Z,84.66
2023-01-19T06:23:38.009Z,84.89
2023-01-19T06:26:06.490Z,84.76
2023-01-19T06:28:34.554Z,84.79
2023-01-19T06:31:02.608Z,84.77
2023-01-19T06:33:34.436Z,84.76
2023-01-19T06:36:02.411Z,84.72
2023-01-19T06:38:32.300Z,85.05
2023-01-19T06:41:04.348Z,85.20
2023-01-19T06:43:33.087Z,85.19
2023-01-19T06:46:02.139Z,84.93
2023-01-19T06:48:31.110Z,84.99
2023-01-19T06:51:00.223Z,85.01
2023-01-19T06:53:29.409Z,85.04
2023-01-19T06:56:02.102Z,85.51
2023-01-19T06:58:31.984Z,85.41
2023-01-19T07:01:07.306Z,85.05
2023-01-19T07:03:39.599Z,85.32
2023-01-19T07:06:09.478Z,85.13
2023-01-19T07:08:38.962Z,85.19
2023-01-19T07:11:26.362Z,85.77
2023-01-19T07:14:00.286Z,85.89
2023-01-19T07:16:29.788Z,85.45
2023-01-19T07:18:58.665Z,85.40
2023-01-19T07:21:32.077Z,85.61
2023-01-19T07:24:02.040Z,86.02
2023-01-19T07:26:32.051Z,85.62
2023-01-19T07:29:04.218Z,86.14
2023-01-19T07:31:35.950Z,86.37
2023-01-19T07:34:03.943Z,86.06
2023-01-19T07:36:34.168Z,86.18
2023-01-19T07:39:03.527Z,86.57
2023-01-19T07:41:35.626Z,85.44
2023-01-19T07:44:08.098Z,85.30
2023-01-19T07:46:38.444Z,85.25
2023-01-19T07:49:10.894Z,85.61
2023-01-19T07:51:39.207Z,85.59
2023-01-19T07:54:08.970Z,85.40
2023-01-19T07:56:37.156Z,85.92
2023-01-19T07:59:05.366Z,85.71
2023-01-19T08:01:35.317Z,85.63
2023-01-19T08:04:04.956Z,85.49
2023-01-19T08:06:37.365Z,86.23
2023-01-19T08:09:07.332Z,86.26
2023-01-19T08:11:37.176Z,85.30
2023-01-19T08:14:09.655Z,85.63
2023-01-19T08:16:38.809Z,86.21
2023-01-19T08:19:08.728Z,85.84
2023-01-19T08:21:40.171Z,85.62
2023-01-19T08:24:22.526Z,85.49
2023-01-19T08:26:51.454Z,85.57
2023-01-19T08:29:24.856Z,85.85
2023-01-19T08:31:59.113Z,85.84
2023-01-19T08:34:35.908Z,86.32
2023-01-19T08:37:05.360Z,85.97
2023-01-19T08:39:34.234Z,86.29
2023-01-19T08:42:04.567Z,86.04
2023-01-19T08:44:33.004Z,86.04
2023-01-19T08:47:02.602Z,86.01
2023-01-19T08:49:32.754Z,87.52
2023-01-19T08:52:03.419Z,86.68
2023-01-19T08:54:32.120Z,86.59
2023-01-19T08:57:05.343Z,85.86
2023-01-19T08:59:38.083Z,86.37
2023-01-19T09:02:10.882Z,86.01
2023-01-19T09:04:44.703Z,85.65
2023-01-19T09:07:16.116Z,86.49
2023-01-19T09:09:46.407Z,85.90
2023-01-19T09:12:15.188Z,86.10
2023-01-19T09:14:45.789Z,86.09
2023-01-19T09:17:22.663Z,86.91
2023-01-19T09:19:51.081Z,86.19
2023-01-19T09:22:23.342Z,86.04
2023-01-19T09:24:56.359Z,86.48
2023-01-19T09:27:27.395Z,86.44
2023-01-19T09:29:58.127Z,86.79
2023-01-19T09:32:30.895Z,86.36
2023-01-19T09:35:00.548Z,86.12
2023-01-19T09:37:32.504Z,86.06
2023-01-19T09:40:03.289Z,86.59
2023-01-19T09:42:51.528Z,86.08
2023-01-19T09:45:41.164Z,86.46
2023-01-19T09:48:49.194Z,86.13
2023-01-19T09:51:34.293Z,87.20
2023-01-19T09:54:18.640Z,86.32
2023-01-19T09:56:52.359Z,86.06
2023-01-19T09:59:34.184Z,87.27
2023-01-19T10:02:23.022Z,86.20
2023-01-19T10:05:34.589Z,86.70
2023-01-19T10:08:33.446Z,85.83
2023-01-19T10:11:27.485Z,86.13
2023-01-19T10:14:00.389Z,86.60
2023-01-19T10:16:53.109Z,86.25
2023-01-19T10:19:35.091Z,86.26
2023-01-19T10:22:25.947Z,86.20
2023-01-19T10:25:02.171Z,86.18
2023-01-19T10:27:35.847Z,86.28
2023-01-19T10:30:08.874Z,86.55
2023-01-19T10:32:42.133Z,86.63
2023-01-19T10:35:24.478Z,86.63
2023-01-19T10:38:05.374Z,86.63
2023-01-19T10:40:40.933Z,86.32
2023-01-19T10:43:36.509Z,86.63
2023-01-19T10:46:23.717Z,86.47
2023-01-19T10:48:56.393Z,86.60
2023-01-19T10:51:27.941Z,86.62
2023-01-19T10:54:00.540Z,87.30
2023-01-19T10:56:36.782Z,86.49
2023-01-19T10:59:07.617Z,86.59
2023-01-19T11:01:38.228Z,86.75
2023-01-19T11:04:30.955Z,86.94
2023-01-19T11:07:20.580Z,86.91
2023-01-19T11:09:51.627Z,86.92
2023-01-19T11:12:26.765Z,87.26
2023-01-19T11:15:28.183Z,86.61
2023-01-19T11:18:00.143Z,86.71
2023-01-19T11:20:37.271Z,87.03
2023-01-19T11:23:09.165Z,86.59
2023-01-19T11:25:46.250Z,87.07
2023-01-19T11:28:30.423Z,86.91
2023-01-19T11:31:06.650Z,86.68
2023-01-19T11:33:45.710Z,87.09
2023-01-19T11:36:21.317Z,86.68
2023-01-19T11:38:57.746Z,86.64
2023-01-19T11:41:37.884Z,86.70
2023-01-19T11:44:23.215Z,86.65
2023-01-19T11:47:21.122Z,87.18
2023-01-19T11:50:02.984Z,86.73
2023-01-19T11:52:59.515Z,86.77
2023-01-19T11:56:01.282Z,87.15
2023-01-19T11:58:35.665Z,86.77
2023-01-19T12:01:23.719Z,86.86
2023-01-19T12:04:09.942Z,86.81
2023-01-19T12:07:09.252Z,86.69
2023-01-19T12:09:52.556Z,87.03
2023-01-19T12:12:31.299Z,87.07
2023-01-19T12:15:13.426Z,86.90
2023-01-19T12:18:00.272Z,87.08
2023-01-19T12:20:47.532Z,86.89
2023-01-19T12:26:52.673Z,87.40
2023-01-19T12:29:25.750Z,86.82
2023-01-19T12:32:19.599Z,87.19
2023-01-19T12:37:47.584Z,86.89
2023-01-19T12:40:29.148Z,87.87
2023-01-19T12:43:03.412Z,87.11
2023-01-19T12:45:40.147Z,87.27
2023-01-19T12:48:26.603Z,87.13
2023-01-19T12:50:58.809Z,87.33
2023-01-19T12:56:27.554Z,87.29
2023-01-19T12:59:00.291Z,87.28
2023-01-19T13:01:29.201Z,87.46
2023-01-19T13:04:04.689Z,87.26
2023-01-19T13:06:51.235Z,87.72
2023-01-19T13:09:31.017Z,88.50
2023-01-19T13:12:25.869Z,87.47
2023-01-19T13:18:36.660Z,88.01
2023-01-19T13:21:08.991Z,87.81
2023-01-19T13:23:52.747Z,88.16
2023-01-19T13:26:28.333Z,87.71
2023-01-19T13:29:27.533Z,87.88
2023-01-19T13:32:03.301Z,87.79
2023-01-19T13:34:41.558Z,87.92
2023-01-19T13:37:21.958Z,88.07
2023-01-19T13:39:55.961Z,87.95
2023-01-19T13:42:34.966Z,87.81
2023-01-19T13:45:13.884Z,88.16
2023-01-19T13:47:50.886Z,88.45
2023-01-19T13:50:24.183Z,88.11
2023-01-19T13:53:00.822Z,88.09
2023-01-19T13:55:35.447Z,88.52
2023-01-19T13:58:05.388Z,88.27
2023-01-19T14:00:39.305Z,88.65
2023-01-19T14:03:21.667Z,88.76
2023-01-19T14:05:54.673Z,88.46
2023-01-19T14:08:28.292Z,88.47
2023-01-19T14:11:00.385Z,88.67
2023-01-19T14:13:43.668Z,89.18
2023-01-19T14:16:21.309Z,88.78
2023-01-19T14:19:02.666Z,88.89
2023-01-19T14:21:44.795Z,89.08
2023-01-19T14:24:22.484Z,88.83
2023-01-19T14:26:57.140Z,88.77
2023-01-19T14:29:38.497Z,88.77
2023-01-19T14:32:19.948Z,88.62
2023-01-19T14:35:10.314Z,88.92
2023-01-19T14:37:56.111Z,88.50
2023-01-19T14:40:27.184Z,88.85
2023-01-19T14:43:03.488Z,88.85
2023-01-19T14:45:42.037Z,89.07
2023-01-19T14:48:18.388Z,88.57
2023-01-19T14:51:06.099Z,88.96
2023-01-19T14:53:40.479Z,88.65
2023-01-19T14:56:10.033Z,88.23
2023-01-19T14:58:39.943Z,88.28
2023-01-19T15:01:11.641Z,88.44
2023-01-19T15:03:45.793Z,88.81
2023-01-19T15:06:23.817Z,88.52
2023-01-19T15:08:57.173Z,88.90
2023-01-19T15:11:35.457Z,88.77
2023-01-19T15:14:07.958Z,88.77
2023-01-19T15:16:37.108Z,88.92
2023-01-19T15:19:08.076Z,89.10
2023-01-19T15:21:42.428Z,88.80
2023-01-19T15:24:18.309Z,89.50
2023-01-19T15:26:47.397Z,90.08
2023-01-19T15:29:28.948Z,88.75
2023-01-19T15:32:07.534Z,88.97
2023-01-19T15:34:44.050Z,89.22
2023-01-19T15:37:17.608Z,88.89
2023-01-19T15:39:52.251Z,89.41
2023-01-19T15:42:27.786Z,89.01
2023-01-19T15:44:58.736Z,88.92
2023-01-19T15:47:35.877Z,88.90
2023-01-19T15:50:07.851Z,88.94
2023-01-19T15:52:41.375Z,89.41
2023-01-19T15:55:18.950Z,89.07
2023-01-19T15:57:50.551Z,89.25
2023-01-19T16:00:22.379Z,89.31
2023-01-19T16:02:52.832Z,89.09
2023-01-19T16:05:30.584Z,89.36
2023-01-19T16:08:09.687Z,89.14
2023-01-19T16:10:44.278Z,89.56
2023-01-19T16:13:18.342Z,89.40
2023-01-19T16:15:50.334Z,88.81
2023-01-19T16:18:39.416Z,89.17
2023-01-19T16:21:11.094Z,89.71
2023-01-19T16:23:46.797Z,89.07
2023-01-19T16:26:29.361Z,89.04
2023-01-19T16:29:11.257Z,88.85
2023-01-19T16:31:45.133Z,88.56
2023-01-19T16:34:19.606Z,88.75
2023-01-19T16:36:48.265Z,88.88
2023-01-19T16:39:16.535Z,89.85
2023-01-19T16:41:47.407Z,88.88
2023-01-19T16:44:19.405Z,90.54
2023-01-19T16:46:50.758Z,88.79
2023-01-19T16:49:33.669Z,88.94
2023-01-19T16:52:02.731Z,88.53
2023-01-19T16:54:33.913Z,88.63
2023-01-19T16:57:06.965Z,88.55
2023-01-19T16:59:42.028Z,88.34
2023-01-19T17:02:22.950Z,88.77
2023-01-19T17:04:56.030Z,89.37
2023-01-19T17:07:33.136Z,88.74
2023-01-19T17:10:05.905Z,88.60
2023-01-19T17:12:40.503Z,88.81
2023-01-19T17:15:11.768Z,89.45
2023-01-19T17:17:41.402Z,88.45
2023-01-19T17:20:14.699Z,88.55
2023-01-19T17:22:44.263Z,88.89
2023-01-19T17:25:16.554Z,88.83
2023-01-19T17:27:46.069Z,88.78
2023-01-19T17:30:18.870Z,88.54
2023-01-19T17:32:51.164Z,88.68
2023-01-19T17:35:22.434Z,88.58
2023-01-19T17:37:58.919Z,88.73
2023-01-19T17:40:33.285Z,88.91
2023-01-19T17:43:12.582Z,88.74
2023-01-19T17:46:00.917Z,88.97
2023-01-19T17:48:33.011Z,88.87
2023-01-19T17:51:15.682Z,88.92
2023-01-19T17:53:44.608Z,88.98
2023-01-19T17:56:20.293Z,89.04
2023-01-19T17:58:57.038Z,88.93
2023-01-19T18:01:37.284Z,88.79
2023-01-19T18:04:08.135Z,89.36
2023-01-19T18:06:40.980Z,88.87
2023-01-19T18:09:13.092Z,88.66
2023-01-19T18:11:45.258Z,88.73
2023-01-19T18:14:17.043Z,89.02
2023-01-19T18:16:50.200Z,88.68
2023-01-19T18:19:22.527Z,88.88
2023-01-19T18:21:55.969Z,88.93
2023-01-19T18:24:25.994Z,88.82
2023-01-19T18:26:58.030Z,89.09
2023-01-19T18:29:47.936Z,88.56
2023-01-19T18:32:31.919Z,88.58
2023-01-19T18:35:03.086Z,88.78
2023-01-19T18:37:39.080Z,88.74
2023-01-19T18:40:10.834Z,88.25
2023-01-19T18:42:55.292Z,88.78
2023-01-19T18:45:25.825Z,88.92
2023-01-19T18:48:00.758Z,89.37
2023-01-19T18:50:30.650Z,88.68
2023-01-19T18:53:03.352Z,88.85
2023-01-19T18:55:39.009Z,88.94
2023-01-19T18:58:10.784Z,88.83
2023-01-19T19:00:41.090Z,88.43
2023-01-19T19:03:17.017Z,88.77
2023-01-19T19:05:47.542Z,88.52
2023-01-19T19:08:17.219Z,88.54
2023-01-19T19:10:47.457Z,88.71
2023-01-19T19:13:22.155Z,88.73
2023-01-19T19:15:53.133Z,88.84
2023-01-19T19:18:24.681Z,88.88
2023-01-19T19:20:54.272Z,88.83
2023-01-19T19:23:24.946Z,88.96
2023-01-19T19:25:53.640Z,89.12
2023-01-19T19:28:24.847Z,89.05
2023-01-19T19:31:12.522Z,89.31
2023-01-19T19:33:44.821Z,89.01
2023-01-19T19:36:16.339Z,88.84
2023-01-19T19:38:47.461Z,89.02
2023-01-19T19:41:27.281Z,88.87
2023-01-19T19:43:57.695Z,88.53
2023-01-19T19:46:28.056Z,88.76
2023-01-19T19:48:56.927Z,89.21
2023-01-19T19:51:27.429Z,88.98
2023-01-19T19:54:00.637Z,89.12
2023-01-19T19:56:32.715Z,88.86
2023-01-19T19:59:02.305Z,88.98
2023-01-19T20:01:33.867Z,88.75
2023-01-19T20:04:13.573Z,88.95
2023-01-19T20:06:46.869Z,89.15
2023-01-19T20:09:19.357Z,88.95
2023-01-19T20:11:49.616Z,89.04
2023-01-19T20:14:19.091Z,89.04
2023-01-19T20:16:47.260Z,89.12
2023-01-19T20:19:18.435Z,88.91
2023-01-19T20:21:46.975Z,89.40
2023-01-19T20:24:20.554Z,88.83
2023-01-19T20:26:52.959Z,89.13
2023-01-19T20:29:24.482Z,89.16
2023-01-19T20:31:56.215Z,89.16
2023-01-19T20:34:33.189Z,89.11
2023-01-19T20:37:04.357Z,88.82
2023-01-19T20:39:37.121Z,89.28
2023-01-19T20:42:06.696Z,88.88
2023-01-19T20:44:34.409Z,88.64
2023-01-19T20:47:02.332Z,88.99
2023-01-19T20:49:30.419Z,89.37
2023-01-19T20:51:58.734Z,88.95
2023-01-19T20:54:28.701Z,88.91
2023-01-19T20:56:57.879Z,88.96
2023-01-19T20:59:26.079Z,88.99
2023-01-19T21:01:53.931Z,88.98
2023-01-19T21:04:22.742Z,89.03
2023-01-19T21:06:50.618Z,88.99
2023-01-19T21:09:18.955Z,88.86
2023-01-19T21:11:47.165Z,89.12
2023-01-19T21:14:14.970Z,89.20
2023-01-19T21:16:43.669Z,88.86
2023-01-19T21:19:12.863Z,88.92
2023-01-19T21:21:44.008Z,88.97
2023-01-19T21:24:12.354Z,89.26
2023-01-19T21:26:41.981Z,88.86
2023-01-19T21:29:13.538Z,89.11
2023-01-19T21:31:42.046Z,89.00
2023-01-19T21:34:10.235Z,89.11
2023-01-19T21:36:38.126Z,89.08
2023-01-19T21:39:08.386Z,89.16
2023-01-19T21:41:40.570Z,88.88
2023-01-19T21:44:10.683Z,89.06
2023-01-19T21:46:39.144Z,89.01
2023-01-19T21:49:08.731Z,89.15
2023-01-19T21:51:37.336Z,89.00
2023-01-19T21:54:06.951Z,88.93
2023-01-19T21:56:43.534Z,88.87
2023-01-19T21:59:15.898Z,88.65
2023-01-19T22:01:45.919Z,88.82
2023-01-19T22:04:14.354Z,88.93
2023-01-19T22:06:42.267Z,88.82
2023-01-19T22:09:10.189Z,88.88
2023-01-19T22:11:38.453Z,88.85
2023-01-19T22:14:06.402Z,88.98
2023-01-19T22:16:34.215Z,89.05
2023-01-19T22:19:07.636Z,88.98
2023-01-19T22:21:38.650Z,89.33
2023-01-19T22:24:10.013Z,88.86
2023-01-19T22:26:37.981Z,88.97
2023-01-19T22:29:12.129Z,88.96
2023-01-19T22:31:40.493Z,89.01
2023-01-19T22:34:12.150Z,88.97
2023-01-19T22:36:40.134Z,89.04
2023-01-19T22:39:10.903Z,89.12
2023-01-19T22:41:47.070Z,89.55
2023-01-19T22:44:18.136Z,89.45
2023-01-19T22:46:45.889Z,89.07
2023-01-19T22:49:15.836Z,89.10
2023-01-19T22:51:46.501Z,89.23
2023-01-19T22:54:14.253Z,89.40
2023-01-19T22:56:42.375Z,89.21
2023-01-19T22:59:10.532Z,89.83
2023-01-19T23:01:41.409Z,89.56
2023-01-19T23:04:13.340Z,89.68
2023-01-19T23:06:41.581Z,89.96
2023-01-19T23:09:13.216Z,89.90
2023-01-19T23:11:44.332Z,89.48
2023-01-19T23:14:15.272Z,89.69
2023-01-19T23:16:43.425Z,90.06
2023-01-19T23:19:12.583Z,90.31
2023-01-19T23:21:42.202Z,89.81
2023-01-19T23:24:10.724Z,90.11
2023-01-19T23:26:39.095Z,90.30
2023-01-19T23:29:16.297Z,89.87
2023-01-19T23:31:47.391Z,90.08
2023-01-19T23:34:15.605Z,90.21
2023-01-19T23:36:44.679Z,90.08
2023-01-19T23:39:20.004Z,90.19
2023-01-19T23:41:51.250Z,90.31
2023-01-19T23:44:19.770Z,90.20
2023-01-19T23:46:50.810Z,90.09
2023-01-19T23:49:19.139Z,90.05
2023-01-19T23:51:46.996Z,91.02
2023-01-19T23:54:14.863Z,90.08
2023-01-19T23:56:43.104Z,90.18
2023-01-19T23:59:16.041Z,90.18
